Time;durP1;ratioP1;P1;durP2;ratioP2;P2;SDS_P1;SDS_P2;PMS_P1;PMS_P2;Temp;Humidity;BMP_temperature;BMP_pressure;BME280_temperature;BME280_humidity;BME280_pressure;Samples;Min_cycle;Max_cycle;Signal;HPM_P1;HPM_P2
2022/12/17 13:07:32;;;;;;;12.43;4.15;;;1.00;99.90;;;;;;4945568;29;20242;-66
2022/12/17 13:09:59;;;;;;;5.00;4.63;;;1.00;99.90;;;;;;4951966;29;20214;-65
2022/12/17 13:12:31;;;;;;;3.30;3.00;;;1.00;99.90;;;;;;4940561;29;20543;-66
2022/12/17 13:15:22;;;;;;;9.23;5.10;;;0.90;99.90;;;;;;4932163;29;20584;-66
2022/12/17 13:17:59;;;;;;;3.22;3.03;;;0.90;99.90;;;;;;4932942;29;20676;-66
2022/12/17 13:20:29;;;;;;;10.95;5.05;;;0.90;99.90;;;;;;4934351;29;20296;-66
2022/12/17 13:23:24;;;;;;;10.38;5.80;;;0.90;99.90;;;;;;4943003;29;20295;-66
2022/12/17 13:26:29;;;;;;;3.33;3.05;;;1.00;99.90;;;;;;4944548;29;20263;-66
2022/12/17 13:29:02;;;;;;;3.80;3.60;;;1.00;99.90;;;;;;4887922;29;20275;-65
2022/12/17 13:31:32;;;;;;;3.70;3.38;;;1.00;99.90;;;;;;4932013;29;20285;-65
2022/12/17 13:34:08;;;;;;;5.35;4.68;;;1.00;99.90;;;;;;4933151;29;20217;-65
2022/12/17 13:36:43;;;;;;;5.13;4.65;;;0.90;99.90;;;;;;4933526;29;20208;-65
2022/12/17 13:39:28;;;;;;;4.10;3.90;;;0.90;99.90;;;;;;4941554;29;20215;-66
2022/12/17 13:41:55;;;;;;;3.90;3.55;;;0.90;99.90;;;;;;4934006;29;20229;-67
2022/12/17 13:44:25;;;;;;;3.83;3.72;;;0.90;99.90;;;;;;4943082;29;20236;-67
2022/12/17 13:46:53;;;;;;;4.38;3.80;;;0.90;99.90;;;;;;4945745;29;20233;-66
2022/12/17 13:49:22;;;;;;;3.17;2.58;;;0.90;99.90;;;;;;4951980;29;20567;-67
2022/12/17 13:51:59;;;;;;;3.47;3.33;;;0.90;99.90;;;;;;4942614;29;20229;-66
2022/12/17 13:54:27;;;;;;;4.97;4.28;;;0.80;99.90;;;;;;4946902;29;20213;-66
2022/12/17 13:56:54;;;;;;;8.35;3.45;;;0.80;99.90;;;;;;4936193;29;20645;-66
2022/12/17 13:59:22;;;;;;;3.00;2.90;;;0.70;99.90;;;;;;4941232;29;20216;-67
2022/12/17 14:01:52;;;;;;;6.35;5.57;;;0.80;99.90;;;;;;4941774;29;20247;-67
2022/12/17 14:04:22;;;;;;;2.38;2.28;;;0.70;99.90;;;;;;4949718;29;20219;-67
2022/12/17 14:06:50;;;;;;;3.65;3.45;;;0.80;99.90;;;;;;4950002;29;20232;-68
2022/12/17 14:09:19;;;;;;;3.72;3.05;;;0.80;99.90;;;;;;4943346;29;20220;-66
2022/12/17 14:14:35;;;;;;;4.57;4.20;;;0.70;99.90;;;;;;4944109;29;20289;-67
2022/12/17 14:17:02;;;;;;;6.35;3.33;;;0.70;99.90;;;;;;4949532;29;20264;-68
2022/12/17 14:19:31;;;;;;;3.40;3.22;;;0.70;99.90;;;;;;4937433;29;20217;-67
2022/12/17 14:21:59;;;;;;;3.85;3.50;;;0.60;99.90;;;;;;4938160;29;20234;-67
2022/12/17 14:24:28;;;;;;;4.60;4.40;;;0.60;99.90;;;;;;4947898;29;20212;-67
2022/12/17 14:26:58;;;;;;;6.28;3.72;;;0.60;99.90;;;;;;4949105;29;20666;-66
2022/12/17 14:29:27;;;;;;;4.22;3.97;;;0.60;99.90;;;;;;4943768;29;20208;-66
2022/12/17 14:31:56;;;;;;;2.88;2.67;;;0.50;99.90;;;;;;4945502;29;20293;-67
2022/12/17 14:34:23;;;;;;;7.05;5.35;;;0.40;99.90;;;;;;4935929;29;20215;-67
2022/12/17 14:36:55;;;;;;;4.60;4.22;;;0.40;99.90;;;;;;4943667;29;20723;-67
2022/12/17 14:39:25;;;;;;;5.28;4.95;;;0.40;99.90;;;;;;4950855;29;20300;-68
2022/12/17 14:44:50;;;;;;;5.07;3.47;;;0.30;99.90;;;;;;4951269;29;20309;-67
2022/12/17 14:47:20;;;;;;;4.63;3.80;;;0.30;99.90;;;;;;4950319;29;20320;-67
2022/12/17 14:49:55;;;;;;;5.30;4.88;;;0.20;99.90;;;;;;4950158;29;20212;-68
2022/12/17 14:52:33;;;;;;;6.38;4.07;;;0.20;99.90;;;;;;4949158;28;20323;-66
2022/12/17 14:54:59;;;;;;;4.90;4.32;;;0.10;99.90;;;;;;4945920;29;20264;-66
2022/12/17 14:57:26;;;;;;;2.40;2.30;;;0.00;99.90;;;;;;4951539;29;20212;-68
2022/12/17 14:59:54;;;;;;;5.20;4.68;;;0.00;99.90;;;;;;4943272;29;20224;-67
2022/12/17 15:02:25;;;;;;;6.70;6.05;;;0.00;99.90;;;;;;4936459;29;20354;-66
2022/12/17 15:04:52;;;;;;;5.55;5.35;;;-0.10;99.90;;;;;;4947418;29;20266;-65
2022/12/17 15:07:24;;;;;;;4.25;4.05;;;-0.20;99.90;;;;;;4953492;29;20227;-67
2022/12/17 15:09:52;;;;;;;8.60;7.03;;;-0.20;99.90;;;;;;4954955;29;20242;-68
2022/12/17 15:12:19;;;;;;;7.97;5.60;;;-0.20;99.90;;;;;;4946091;29;20322;-67
2022/12/17 15:14:46;;;;;;;3.15;2.92;;;-0.30;99.90;;;;;;4952175;29;20788;-66
2022/12/17 15:17:14;;;;;;;6.93;3.92;;;-0.40;99.90;;;;;;4948353;29;20323;-67
2022/12/17 15:19:41;;;;;;;5.05;4.70;;;-0.40;99.90;;;;;;4936228;29;20267;-67
2022/12/17 15:22:14;;;;;;;4.95;4.40;;;-0.60;99.90;;;;;;4951395;29;20270;-67
2022/12/17 15:24:40;;;;;;;9.30;5.43;;;-0.60;99.90;;;;;;4948641;29;20630;-66
2022/12/17 15:27:09;;;;;;;13.88;6.55;;;-0.70;99.90;;;;;;4945618;29;20235;-67
2022/12/17 15:29:35;;;;;;;4.55;4.35;;;-0.70;99.90;;;;;;4952823;29;20247;-67
2022/12/17 15:32:02;;;;;;;9.07;7.90;;;-0.60;99.90;;;;;;4949152;29;20239;-67
2022/12/17 15:34:31;;;;;;;9.25;4.40;;;-0.60;99.90;;;;;;4944929;29;20207;-68
2022/12/17 15:36:57;;;;;;;4.88;4.30;;;-0.60;99.90;;;;;;4951590;29;20206;-67
2022/12/17 15:39:24;;;;;;;4.35;4.13;;;-0.60;99.90;;;;;;4950966;29;20890;-68
2022/12/17 15:44:35;;;;;;;5.82;3.63;;;-0.70;99.90;;;;;;4952529;29;20218;-68
2022/12/17 15:47:01;;;;;;;7.10;6.50;;;-0.70;99.90;;;;;;4940614;29;20227;-68
2022/12/17 15:49:28;;;;;;;15.65;5.85;;;-0.70;99.90;;;;;;4947304;29;20216;-68
2022/12/17 15:51:56;;;;;;;6.38;5.95;;;-0.80;99.90;;;;;;4952296;29;20326;-68
2022/12/17 15:54:24;;;;;;;9.40;6.97;;;-0.80;99.90;;;;;;4951653;29;20283;-68
2022/12/17 15:56:53;;;;;;;3.35;3.10;;;-0.80;99.90;;;;;;4947205;29;20207;-68
2022/12/17 15:59:20;;;;;;;8.32;7.60;;;-0.80;99.90;;;;;;4951371;29;20627;-68
2022/12/17 16:01:46;;;;;;;5.15;4.22;;;-0.80;99.90;;;;;;4942482;29;21497;-68
2022/12/17 16:04:13;;;;;;;3.70;3.60;;;-0.80;99.90;;;;;;4941620;29;20216;-67
2022/12/17 16:06:40;;;;;;;11.55;6.70;;;-0.80;99.90;;;;;;4942644;29;20200;-68
2022/12/17 16:09:08;;;;;;;9.40;4.13;;;-0.80;99.90;;;;;;4947009;29;20211;-68
2022/12/17 16:11:35;;;;;;;5.32;5.13;;;-0.90;99.90;;;;;;4949685;29;20223;-68
2022/12/17 16:14:01;;;;;;;9.65;6.13;;;-0.90;99.90;;;;;;4945508;29;20206;-68
2022/12/17 16:16:29;;;;;;;6.00;4.68;;;-0.90;99.90;;;;;;4949408;29;20270;-71
2022/12/17 16:18:56;;;;;;;4.05;3.78;;;-1.00;99.90;;;;;;4942302;29;20315;-67
2022/12/17 16:21:23;;;;;;;4.00;3.08;;;-1.00;99.90;;;;;;4934387;29;20239;-67
2022/12/17 16:23:49;;;;;;;4.80;4.55;;;-1.10;99.90;;;;;;4944665;29;20686;-68
2022/12/17 16:26:17;;;;;;;9.13;7.43;;;-1.10;99.90;;;;;;4952199;29;20282;-67
2022/12/17 16:28:44;;;;;;;6.28;5.97;;;-1.10;99.90;;;;;;4941816;29;20231;-67
2022/12/17 16:31:13;;;;;;;2.88;2.78;;;-1.10;99.90;;;;;;4948698;29;20330;-67
2022/12/17 16:33:42;;;;;;;17.58;9.00;;;-1.20;99.90;;;;;;4944531;28;20678;-68
2022/12/17 16:36:12;;;;;;;4.32;3.20;;;-1.20;99.90;;;;;;4953551;29;20206;-67
2022/12/17 16:38:42;;;;;;;3.28;3.17;;;-1.20;99.90;;;;;;4946817;29;20650;-68
2022/12/17 16:41:09;;;;;;;4.78;4.43;;;-1.30;99.90;;;;;;4951587;29;20255;-69
2022/12/17 16:43:37;;;;;;;7.35;5.95;;;-1.30;99.90;;;;;;4948136;29;20278;-67
2022/12/17 16:46:05;;;;;;;4.50;4.22;;;-1.40;99.90;;;;;;4938962;29;20219;-68
2022/12/17 16:48:38;;;;;;;5.60;5.05;;;-1.40;99.90;;;;;;4947209;29;20227;-68
2022/12/17 16:51:16;;;;;;;11.73;9.13;;;-1.40;99.90;;;;;;4947164;29;20271;-67
2022/12/17 16:53:44;;;;;;;4.95;4.50;;;-1.40;99.90;;;;;;4939483;29;20290;-67
2022/12/17 16:56:16;;;;;;;3.83;2.92;;;-1.40;99.90;;;;;;4943401;29;20207;-66
2022/12/17 16:58:44;;;;;;;9.98;4.72;;;-1.40;99.90;;;;;;4941390;29;20298;-68
2022/12/17 17:01:11;;;;;;;4.50;4.30;;;-1.40;99.90;;;;;;4946929;29;20242;-68
2022/12/17 17:03:41;;;;;;;2.80;2.70;;;-1.50;99.90;;;;;;4946490;29;20210;-68
2022/12/17 17:06:09;;;;;;;8.82;4.35;;;-1.50;99.90;;;;;;4949328;29;20236;-68
2022/12/17 17:08:36;;;;;;;4.72;4.57;;;-1.50;99.90;;;;;;4952893;29;20562;-68
2022/12/17 17:11:11;;;;;;;7.63;5.63;;;-1.60;99.90;;;;;;4950916;28;20230;-68
2022/12/17 17:13:38;;;;;;;11.27;4.43;;;-1.60;99.90;;;;;;4947840;29;20209;-69
2022/12/17 17:16:08;;;;;;;5.13;4.65;;;-1.60;99.90;;;;;;4946327;28;20202;-68
2022/12/17 17:18:36;;;;;;;2.75;2.75;;;-1.60;99.90;;;;;;4944396;29;20207;-68
2022/12/17 17:21:22;;;;;;;3.72;3.35;;;-1.60;99.90;;;;;;4940287;29;20221;-67
2022/12/17 17:23:50;;;;;;;8.18;7.55;;;-1.60;99.90;;;;;;4943271;29;20210;-68
2022/12/17 17:26:17;;;;;;;7.13;3.92;;;-1.60;99.90;;;;;;4939213;29;20710;-68
2022/12/17 17:28:46;;;;;;;4.30;4.05;;;-1.60;99.90;;;;;;4941514;29;20229;-69
2022/12/17 17:31:15;;;;;;;4.13;3.35;;;-1.60;99.90;;;;;;4939198;28;20248;-68
2022/12/17 17:33:45;;;;;;;5.88;3.97;;;-1.60;99.90;;;;;;4948449;29;20273;-68
2022/12/17 17:36:13;;;;;;;17.30;5.18;;;-1.70;99.90;;;;;;4950141;29;20208;-67
2022/12/17 17:38:41;;;;;;;8.55;5.07;;;-1.70;99.90;;;;;;4949198;28;20207;-68
2022/12/17 17:41:14;;;;;;;7.38;4.03;;;-1.70;99.90;;;;;;4949614;29;20300;-67
2022/12/17 17:43:41;;;;;;;5.63;5.28;;;-1.80;99.90;;;;;;4945863;29;20261;-68
2022/12/17 17:46:10;;;;;;;4.75;4.43;;;-1.80;99.90;;;;;;4940442;29;20300;-67
2022/12/17 17:48:38;;;;;;;2.40;2.10;;;-1.90;99.90;;;;;;4946575;29;20232;-67
2022/12/17 17:51:07;;;;;;;5.60;5.03;;;-2.00;99.90;;;;;;4949572;29;20238;-68
2022/12/17 17:53:34;;;;;;;3.90;3.70;;;-2.00;99.90;;;;;;4942412;29;20220;-68
2022/12/17 17:56:05;;;;;;;3.88;3.63;;;-2.10;99.90;;;;;;4945776;29;20214;-68
2022/12/17 17:58:33;;;;;;;4.72;4.43;;;-2.20;99.90;;;;;;4945626;29;20194;-68
2022/12/17 18:01:06;;;;;;;9.45;4.28;;;-2.20;99.90;;;;;;4949394;29;20245;-68
2022/12/17 18:03:33;;;;;;;7.28;6.68;;;-2.30;99.90;;;;;;4941837;29;20207;-68
2022/12/17 18:06:02;;;;;;;9.55;5.65;;;-2.40;99.90;;;;;;4950296;29;20206;-69
2022/12/17 18:08:30;;;;;;;19.13;5.18;;;-2.50;99.90;;;;;;4949415;29;20238;-68
2022/12/17 18:10:57;;;;;;;4.13;3.80;;;-2.50;99.90;;;;;;4942141;29;20315;-68
2022/12/17 18:16:08;;;;;;;4.63;3.45;;;-2.60;99.90;;;;;;4954087;29;20235;-68
2022/12/17 18:18:35;;;;;;;6.43;4.07;;;-2.60;99.90;;;;;;4951540;29;20206;-68
2022/12/17 18:21:05;;;;;;;5.75;5.10;;;-2.70;99.90;;;;;;4946913;28;20323;-68
2022/12/17 18:23:32;;;;;;;3.45;3.30;;;-2.70;99.90;;;;;;4951503;29;20217;-67
2022/12/17 18:26:05;;;;;;;8.35;5.70;;;-2.80;99.90;;;;;;4947113;28;20289;-67
2022/12/17 18:28:31;;;;;;;8.73;7.20;;;-2.80;99.90;;;;;;4948516;29;20258;-68
2022/12/17 18:30:58;;;;;;;7.68;5.68;;;-2.80;99.90;;;;;;4954826;28;20225;-68
2022/12/17 18:33:25;;;;;;;5.70;5.28;;;-2.90;99.90;;;;;;4942618;29;20214;-67
2022/12/17 18:35:51;;;;;;;7.10;6.40;;;-2.90;99.90;;;;;;4946845;29;20220;-67
2022/12/17 18:38:20;;;;;;;5.25;4.63;;;-2.90;99.90;;;;;;4947199;29;20201;-68
2022/12/17 18:40:47;;;;;;;2.65;2.55;;;-2.90;99.90;;;;;;4953612;29;20260;-68
2022/12/17 18:43:24;;;;;;;9.35;6.32;;;-3.00;99.90;;;;;;4953747;29;20288;-68
2022/12/17 18:45:52;;;;;;;5.07;4.78;;;-3.00;99.90;;;;;;4948916;29;20628;-67
2022/12/17 18:48:19;;;;;;;2.70;2.67;;;-3.00;99.90;;;;;;4944215;29;20280;-68
2022/12/17 18:50:46;;;;;;;6.30;5.78;;;-3.00;99.90;;;;;;4950165;28;20236;-67
2022/12/17 18:53:13;;;;;;;3.05;2.95;;;-3.10;99.90;;;;;;4941166;29;20268;-68
2022/12/17 18:55:41;;;;;;;9.27;6.40;;;-3.10;99.90;;;;;;4948073;29;20209;-68
2022/12/17 18:58:08;;;;;;;2.55;1.50;;;-3.10;99.90;;;;;;4947812;29;20235;-67
2022/12/17 19:00:37;;;;;;;5.40;4.97;;;-3.10;99.90;;;;;;4941648;29;20696;-67
2022/12/17 19:03:04;;;;;;;5.10;4.65;;;-3.10;99.90;;;;;;4944828;29;20678;-67
2022/12/17 19:05:31;;;;;;;3.45;3.20;;;-3.10;99.90;;;;;;4949619;29;20211;-68
2022/12/17 19:07:57;;;;;;;8.18;5.70;;;-3.10;99.90;;;;;;4951285;29;20288;-68
2022/12/17 19:10:24;;;;;;;6.32;5.90;;;-3.20;99.90;;;;;;4945970;29;20228;-68
2022/12/17 19:12:52;;;;;;;7.00;5.80;;;-3.20;99.90;;;;;;4942087;29;20214;-67
2022/12/17 19:15:19;;;;;;;1.45;1.45;;;-3.30;99.90;;;;;;4948056;29;20219;-67
2022/12/17 19:17:49;;;;;;;3.33;3.13;;;-3.30;99.90;;;;;;4946508;29;20253;-68
2022/12/17 19:20:17;;;;;;;2.78;2.67;;;-3.30;99.90;;;;;;4953305;29;20208;-68
2022/12/17 19:22:43;;;;;;;5.57;5.20;;;-3.30;99.90;;;;;;4948052;29;20580;-68
2022/12/17 19:25:10;;;;;;;9.35;7.25;;;-3.20;99.90;;;;;;4942498;29;20581;-68
2022/12/17 19:27:37;;;;;;;6.75;6.30;;;-3.10;99.90;;;;;;4941940;29;20225;-68
2022/12/17 19:30:06;;;;;;;7.70;5.57;;;-3.10;99.90;;;;;;4942823;29;20209;-68
2022/12/17 19:32:33;;;;;;;5.40;4.97;;;-3.00;99.90;;;;;;4950643;28;20282;-67
2022/12/17 19:34:59;;;;;;;6.22;5.72;;;-3.00;99.90;;;;;;4950621;29;20260;-67
2022/12/17 19:37:26;;;;;;;4.00;3.13;;;-2.90;99.90;;;;;;4952084;28;20240;-67
2022/12/17 19:39:53;;;;;;;3.33;3.22;;;-2.90;99.90;;;;;;4945972;28;20213;-67
2022/12/17 19:42:26;;;;;;;9.35;8.43;;;-2.90;99.90;;;;;;4949818;29;20224;-68
2022/12/17 19:44:54;;;;;;;4.28;3.92;;;-2.90;99.90;;;;;;4946257;29;20245;-67
2022/12/17 19:47:23;;;;;;;4.13;3.72;;;-2.90;99.90;;;;;;4939192;28;20212;-67
2022/12/17 19:49:50;;;;;;;8.75;5.13;;;-2.90;99.90;;;;;;4944386;29;20230;-67
2022/12/17 19:52:16;;;;;;;2.35;2.15;;;-3.00;99.90;;;;;;4949230;28;20229;-69
2022/12/17 19:54:43;;;;;;;3.95;3.85;;;-3.00;99.90;;;;;;4950929;29;20291;-67
2022/12/17 19:57:10;;;;;;;9.90;4.20;;;-3.00;99.90;;;;;;4952098;29;20214;-68
2022/12/17 19:59:36;;;;;;;6.10;4.93;;;-3.10;99.90;;;;;;4951334;29;20295;-69
2022/12/17 20:02:03;;;;;;;4.47;3.70;;;-3.00;99.90;;;;;;4941929;29;20279;-67
2022/12/17 20:04:31;;;;;;;3.45;3.13;;;-3.00;99.90;;;;;;4941428;29;20213;-68
2022/12/17 20:06:59;;;;;;;3.10;2.97;;;-3.00;99.90;;;;;;4945559;29;20216;-68
2022/12/17 20:09:26;;;;;;;4.60;3.10;;;-2.90;99.90;;;;;;4946276;29;20224;-68
2022/12/17 20:11:53;;;;;;;6.78;6.13;;;-2.90;99.90;;;;;;4950405;29;20295;-68
2022/12/17 20:14:21;;;;;;;5.30;5.00;;;-2.90;99.90;;;;;;4953592;29;20272;-69
2022/12/17 20:16:49;;;;;;;3.70;3.42;;;-2.90;99.90;;;;;;4952632;29;20677;-68
2022/12/17 20:19:18;;;;;;;2.88;2.75;;;-3.00;99.90;;;;;;4943058;29;20266;-68
2022/12/17 20:21:46;;;;;;;1.85;1.85;;;-3.00;99.90;;;;;;4951020;29;20235;-68
2022/12/17 20:24:16;;;;;;;4.97;3.97;;;-3.00;99.90;;;;;;4948130;29;20208;-68
2022/12/17 20:26:44;;;;;;;2.15;2.00;;;-3.10;99.90;;;;;;4945275;29;20272;-68
2022/12/17 20:29:11;;;;;;;4.07;3.90;;;-3.10;99.90;;;;;;4950410;29;20236;-68
2022/12/17 20:31:38;;;;;;;16.23;3.60;;;-3.10;99.90;;;;;;4949750;28;20221;-68
2022/12/17 20:34:08;;;;;;;5.53;5.07;;;-3.10;99.90;;;;;;4945116;29;20213;-68
2022/12/17 20:36:35;;;;;;;5.25;5.00;;;-3.10;99.90;;;;;;4952902;29;20274;-68
2022/12/17 20:39:03;;;;;;;5.38;4.97;;;-3.00;99.90;;;;;;4944423;29;20296;-68
2022/12/17 20:41:31;;;;;;;3.83;3.63;;;-3.00;99.90;;;;;;4948078;29;20228;-68
2022/12/17 20:44:01;;;;;;;6.70;6.22;;;-3.10;99.90;;;;;;4951781;29;20216;-67
2022/12/17 20:46:28;;;;;;;2.97;2.90;;;-3.10;99.90;;;;;;4950625;29;20249;-67
2022/12/17 20:48:55;;;;;;;2.70;2.65;;;-3.10;99.90;;;;;;4945203;28;20228;-68
2022/12/17 20:51:23;;;;;;;6.78;2.70;;;-3.10;99.90;;;;;;4951460;29;20227;-68
2022/12/17 20:53:51;;;;;;;4.90;4.68;;;-3.20;99.90;;;;;;4945827;29;20208;-68
2022/12/17 20:56:21;;;;;;;3.92;3.72;;;-3.20;99.90;;;;;;4938341;29;20208;-67
2022/12/17 20:58:51;;;;;;;5.10;4.80;;;-3.30;99.90;;;;;;4944172;29;20208;-67
2022/12/17 21:01:20;;;;;;;6.25;4.70;;;-3.40;99.90;;;;;;4942231;28;20240;-67
2022/12/17 21:03:48;;;;;;;4.90;4.70;;;-3.40;99.90;;;;;;4942611;29;20280;-67
2022/12/17 21:06:16;;;;;;;6.25;4.82;;;-3.40;99.90;;;;;;4941314;29;20304;-68
2022/12/17 21:08:47;;;;;;;7.38;6.97;;;-3.40;99.90;;;;;;4943555;29;20224;-68
2022/12/17 21:11:14;;;;;;;4.97;4.88;;;-3.40;99.90;;;;;;4942639;29;20225;-68
2022/12/17 21:13:42;;;;;;;6.88;6.28;;;-3.50;99.90;;;;;;4942193;29;20208;-68
2022/12/17 21:16:12;;;;;;;3.75;3.65;;;-3.60;99.90;;;;;;4947227;29;20224;-69
2022/12/17 21:18:39;;;;;;;3.25;3.15;;;-3.40;99.90;;;;;;4947205;29;20213;-68
2022/12/17 21:21:07;;;;;;;1.80;1.80;;;-3.40;99.90;;;;;;4950955;29;20232;-68
2022/12/17 21:23:35;;;;;;;5.63;3.42;;;-3.40;99.90;;;;;;4944269;28;20292;-67
2022/12/17 21:26:04;;;;;;;2.60;2.35;;;-3.40;99.90;;;;;;4950417;29;20664;-68
2022/12/17 21:28:32;;;;;;;1.38;1.38;;;-3.40;99.90;;;;;;4950279;29;20221;-68
2022/12/17 21:31:01;;;;;;;1.67;1.58;;;-3.30;99.90;;;;;;4936707;29;20233;-67
2022/12/17 21:33:28;;;;;;;9.63;2.83;;;-3.40;99.90;;;;;;4948328;28;20206;-67
2022/12/17 21:35:59;;;;;;;3.00;2.88;;;-3.40;99.90;;;;;;4938560;29;20238;-68
2022/12/17 21:38:26;;;;;;;1.20;1.20;;;-3.40;99.90;;;;;;4950335;29;20301;-67
2022/12/17 21:40:53;;;;;;;1.65;1.60;;;-3.50;99.90;;;;;;4945203;28;20236;-67
2022/12/17 21:43:19;;;;;;;2.10;2.10;;;-3.40;99.90;;;;;;4933761;29;20217;-67
2022/12/17 21:45:46;;;;;;;5.50;5.15;;;-3.50;99.90;;;;;;4940627;28;20243;-68
2022/12/17 21:48:14;;;;;;;3.70;3.40;;;-3.50;99.90;;;;;;4945666;29;20580;-67
2022/12/17 21:50:42;;;;;;;3.60;2.70;;;-3.50;99.90;;;;;;4947127;28;20228;-67
2022/12/17 21:53:08;;;;;;;3.85;3.63;;;-3.50;99.90;;;;;;4949350;28;20260;-67
2022/12/17 21:55:36;;;;;;;2.60;2.50;;;-3.50;99.90;;;;;;4944895;28;20212;-67
2022/12/17 21:58:03;;;;;;;3.90;3.80;;;-3.60;99.90;;;;;;4950324;29;20268;-67
